Terminal Aerodrome Forecast
Issued by NWS Upton, NY

Current Version | Previous Version | Text Only | Print | Product List | Glossary On
Versions: 1 2 3 4 5 6 7 8 9 10 11 12 13 14 15 16 17 18 19 20 21 22 23 24 25 26 27
000
FTUS41 KOKX 110836 AAA
TAFBDR
TAF AMD
KBDR 110836Z 1109/1206 VRB04KT P6SM FEW015 OVC060
      TEMPO 1109/1111 BKN015
     FM111100 VRB04KT P6SM SCT015 OVC060
      TEMPO 1111/1114 6SM -SHRA BR BKN015
     FM111400 02005KT P6SM FEW035 BKN060
     FM111600 16007KT P6SM SCT060
     FM112300 36005KT P6SM SCT090 BKN250=

USA.gov is the U.S. government's official web portal to all federal, state and local government web resources and services.